Time;durP1;ratioP1;P1;durP2;ratioP2;P2;SDS_P1;SDS_P2;PMS_P1;PMS_P2;Temp;Humidity;BMP_temperature;BMP_pressure;BME280_temperature;BME280_humidity;BME280_pressure;Samples;Min_cycle;Max_cycle;Signal;HPM_P1;HPM_P2
2022/11/23 00:07:26;;;;;;;1.60;0.40;;;;;;;4.36;100.00;96481.31;18248010;32;20073;-64
2022/11/23 00:17:29;;;;;;;3.37;0.73;;;;;;;4.28;100.00;96476.47;18246704;32;20097;-65
2022/11/23 00:27:49;;;;;;;0.57;0.27;;;;;;;4.24;100.00;96475.34;18247223;32;20110;-64
2022/11/23 00:37:51;;;;;;;1.33;0.37;;;;;;;4.17;100.00;96482.81;18246537;32;20061;-65
2022/11/23 00:47:54;;;;;;;1.43;0.43;;;;;;;4.10;100.00;96476.88;18246017;32;20149;-65
2022/11/23 00:57:57;;;;;;;2.07;0.40;;;;;;;4.12;100.00;96475.53;18244685;32;20085;-65
2022/11/23 01:08:00;;;;;;;0.70;0.40;;;;;;;4.15;100.00;96480.41;18244042;32;20054;-65
2022/11/23 01:18:02;;;;;;;0.80;0.30;;;;;;;4.15;100.00;96468.88;18241900;32;20078;-65
2022/11/23 01:28:05;;;;;;;2.47;0.50;;;;;;;4.13;100.00;96465.66;18242752;32;20053;-64
2022/11/23 01:38:07;;;;;;;2.03;0.43;;;;;;;4.05;100.00;96470.41;18242529;32;20062;-65
2022/11/23 01:48:22;;;;;;;2.97;0.40;;;;;;;4.01;100.00;96474.66;18242375;32;20470;-64
2022/11/23 01:58:28;;;;;;;2.57;0.40;;;;;;;3.93;100.00;96483.16;18241716;32;20116;-64
2022/11/23 02:08:31;;;;;;;1.33;0.50;;;;;;;3.92;100.00;96483.44;18241480;32;20111;-64
2022/11/23 02:18:35;;;;;;;1.73;0.60;;;;;;;3.92;100.00;96491.44;18239886;32;20430;-64
2022/11/23 02:28:44;;;;;;;3.97;0.80;;;;;;;3.86;100.00;96483.38;18240585;32;20070;-64
2022/11/23 02:38:47;;;;;;;1.40;0.50;;;;;;;3.58;100.00;96479.16;18238531;32;20069;-65
2022/11/23 02:48:49;;;;;;;0.87;0.60;;;;;;;3.21;100.00;96466.53;18239925;32;20102;-64
2022/11/23 02:58:51;;;;;;;2.20;0.50;;;;;;;2.79;100.00;96467.94;18239655;32;20069;-64
2022/11/23 03:08:54;;;;;;;2.03;0.70;;;;;;;2.53;100.00;96456.19;18239780;32;20137;-64
2022/11/23 03:18:57;;;;;;;1.70;0.53;;;;;;;2.59;100.00;96455.19;18239611;32;20084;-65
2022/11/23 03:28:59;;;;;;;1.43;0.60;;;;;;;2.68;100.00;96448.34;18239002;32;20378;-64
2022/11/23 03:39:02;;;;;;;1.33;0.53;;;;;;;2.63;100.00;96445.62;18238702;32;20050;-65
2022/11/23 03:49:05;;;;;;;2.17;0.70;;;;;;;2.47;100.00;96428.63;18243503;32;20442;-65
2022/11/23 03:59:07;;;;;;;4.73;1.30;;;;;;;2.28;100.00;96414.00;18248770;32;20112;-65
2022/11/23 04:09:11;;;;;;;2.37;0.43;;;;;;;2.19;100.00;96413.59;18247202;32;20062;-65
2022/11/23 04:19:14;;;;;;;1.13;0.53;;;;;;;1.94;100.00;96390.88;18234497;32;20092;-65
2022/11/23 04:29:16;;;;;;;1.43;0.43;;;;;;;1.72;100.00;96398.84;18247130;32;20085;-65
2022/11/23 04:39:19;;;;;;;1.67;0.47;;;;;;;1.55;100.00;96387.41;18246401;32;20062;-65
2022/11/23 04:49:22;;;;;;;2.10;0.90;;;;;;;1.30;100.00;96386.78;18245675;32;20050;-65
2022/11/23 04:59:26;;;;;;;2.53;0.90;;;;;;;1.09;100.00;96366.19;18244420;32;20122;-64
2022/11/23 05:09:28;;;;;;;3.40;0.93;;;;;;;0.91;100.00;96370.69;18244061;32;20156;-65
2022/11/23 05:19:32;;;;;;;3.87;0.77;;;;;;;0.78;100.00;96368.31;18230163;32;20050;-64
2022/11/23 05:29:36;;;;;;;0.90;0.30;;;;;;;0.64;100.00;96368.59;18243192;32;20050;-65
2022/11/23 05:39:39;;;;;;;2.07;0.40;;;;;;;0.53;100.00;96376.66;18242425;32;20122;-64
2022/11/23 05:49:42;;;;;;;0.77;0.43;;;;;;;0.40;100.00;96386.53;18242664;32;20081;-64
2022/11/23 05:59:46;;;;;;;2.67;0.60;;;;;;;0.27;100.00;96395.56;18241631;32;20062;-64
2022/11/23 06:09:49;;;;;;;3.83;0.70;;;;;;;0.20;100.00;96392.25;18240870;32;20053;-64
2022/11/23 06:19:53;;;;;;;4.47;0.90;;;;;;;0.06;100.00;96401.53;18240839;32;20409;-64
2022/11/23 06:29:56;;;;;;;2.40;0.60;;;;;;;0.03;100.00;96405.47;18240618;32;20445;-64
2022/11/23 06:39:58;;;;;;;1.57;0.53;;;;;;;-0.08;100.00;96391.16;18226587;32;20070;-64
2022/11/23 06:50:01;;;;;;;1.17;0.60;;;;;;;-0.08;100.00;96400.94;18239981;32;20059;-65
2022/11/23 07:00:05;;;;;;;5.33;0.70;;;;;;;-0.11;100.00;96388.97;18239973;32;20442;-64
2022/11/23 07:10:08;;;;;;;1.70;0.70;;;;;;;-0.13;100.00;96395.56;18239371;32;20460;-64
2022/11/23 07:20:12;;;;;;;2.97;0.70;;;;;;;-0.14;100.00;96399.25;18225751;32;20466;-64
2022/11/23 07:30:15;;;;;;;11.20;2.87;;;;;;;-0.05;100.00;96398.66;18237293;32;20164;-64
2022/11/23 07:40:18;;;;;;;4.27;1.57;;;;;;;-0.05;100.00;96403.97;18250576;32;20114;-64
2022/11/23 07:50:21;;;;;;;5.13;1.97;;;;;;;0.03;100.00;96405.47;18249750;32;20097;-65
2022/11/23 08:00:26;;;;;;;5.40;2.17;;;;;;;0.13;100.00;96394.22;18235204;32;20068;-65
2022/11/23 08:10:31;;;;;;;5.23;1.70;;;;;;;0.29;100.00;96396.16;18248406;32;20063;-64
2022/11/23 08:20:34;;;;;;;5.60;1.87;;;;;;;0.52;100.00;96413.06;18248261;32;20453;-64
2022/11/23 08:30:38;;;;;;;3.00;1.83;;;;;;;0.80;100.00;96403.50;18247110;32;20062;-64
2022/11/23 08:40:41;;;;;;;5.53;2.83;;;;;;;1.13;100.00;96412.56;18245442;32;20059;-64
2022/11/23 08:50:44;;;;;;;4.77;2.57;;;;;;;1.48;100.00;96414.19;18245344;32;20153;-64
2022/11/23 09:00:55;;;;;;;5.70;2.80;;;;;;;1.80;100.00;96421.63;18244776;32;20105;-64
2022/11/23 09:11:01;;;;;;;6.00;3.50;;;;;;;2.11;100.00;96422.84;18243973;32;20446;-64
2022/11/23 09:21:05;;;;;;;5.80;3.33;;;;;;;2.42;100.00;96417.88;18243193;32;20119;-65
2022/11/23 09:31:09;;;;;;;6.07;3.70;;;;;;;2.75;100.00;96429.47;18242806;32;20067;-64
2022/11/23 09:41:51;;;;;;;5.43;3.23;;;;;;;3.14;100.00;96428.53;18229422;32;20100;-64
2022/11/23 09:52:56;;;;;;;6.03;3.10;;;;;;;3.57;100.00;96421.41;18108231;32;20470;-64
2022/11/23 10:02:59;;;;;;;4.40;2.63;;;;;;;4.07;100.00;96422.84;18107330;32;20406;-65
2022/11/23 10:13:33;;;;;;;5.30;2.53;;;;;;;4.35;100.00;96412.00;18107281;32;20135;-65
2022/11/23 10:24:14;;;;;;;6.17;2.90;;;;;;;4.68;100.00;96407.31;18147475;32;20078;-65
2022/11/23 10:34:43;;;;;;;6.73;2.83;;;;;;;5.04;100.00;96397.50;18239668;32;20413;-65
2022/11/23 10:44:49;;;;;;;6.37;2.60;;;;;;;5.26;100.00;96386.53;18144525;32;20098;-65
2022/11/23 10:54:55;;;;;;;3.67;1.83;;;;;;;5.45;100.00;96380.63;18226482;32;20066;-65
2022/11/23 11:05:23;;;;;;;5.30;1.93;;;;;;;5.64;100.00;96364.78;18252140;32;20101;-65
2022/11/23 11:16:00;;;;;;;2.37;1.40;;;;;;;5.98;100.00;96361.53;18251613;32;20059;-65
2022/11/23 11:26:09;;;;;;;3.63;0.90;;;;;;;6.30;100.00;96346.12;18250266;32;20062;-65
2022/11/23 11:36:16;;;;;;;3.90;1.07;;;;;;;6.48;96.98;96334.75;18237033;32;20358;-64
2022/11/23 11:46:32;;;;;;;3.10;0.80;;;;;;;6.76;93.72;96329.78;18250238;32;20058;-65
2022/11/23 11:56:41;;;;;;;1.00;0.60;;;;;;;6.91;91.69;96313.56;18249580;32;20438;-65
2022/11/23 12:07:31;;;;;;;1.23;0.50;;;;;;;7.00;89.77;96304.91;18193819;32;20443;-64
2022/11/23 12:17:43;;;;;;;3.33;0.70;;;;;;;7.27;87.01;96302.53;18248629;32;20500;-65
2022/11/23 12:28:16;;;;;;;1.67;0.60;;;;;;;7.82;82.87;96287.22;18247375;32;20107;-64
2022/11/23 12:38:34;;;;;;;0.90;0.57;;;;;;;8.58;79.77;96279.31;18229137;32;20100;-64
2022/11/23 12:49:11;;;;;;;2.27;0.60;;;;;;;9.38;78.75;96279.41;18246085;32;20098;-64
2022/11/23 12:59:16;;;;;;;1.20;0.30;;;;;;;9.70;76.04;96265.06;18244978;32;20093;-65
2022/11/23 13:09:25;;;;;;;1.50;0.40;;;;;;;10.08;74.16;96258.66;18230296;32;20069;-64
2022/11/23 13:19:49;;;;;;;0.85;0.30;;;;;;;9.93;72.08;96240.88;18243170;32;20109;-64
2022/11/23 13:29:52;;;;;;;0.43;0.20;;;;;;;9.49;72.57;96243.84;18243137;32;20108;-65
2022/11/23 13:39:56;;;;;;;1.03;0.30;;;;;;;9.43;72.43;96236.97;18242618;32;20054;-64
2022/11/23 13:50:26;;;;;;;0.47;0.30;;;;;;;9.41;72.01;96228.34;18171468;32;20070;-64
2022/11/23 14:00:54;;;;;;;0.77;0.40;;;;;;;9.37;72.54;96207.66;18240888;32;20067;-64
2022/11/23 14:11:00;;;;;;;1.00;0.30;;;;;;;9.20;74.14;96202.88;18241190;32;20065;-64
2022/11/23 14:21:31;;;;;;;1.00;0.27;;;;;;;9.11;77.77;96189.25;18241097;32;20102;-65
2022/11/23 14:31:56;;;;;;;0.43;0.30;;;;;;;9.08;80.75;96190.63;18240895;32;20070;-64
2022/11/23 14:42:09;;;;;;;0.70;0.20;;;;;;;9.23;81.04;96186.88;18238903;32;20059;-64
2022/11/23 14:52:20;;;;;;;3.40;0.60;;;;;;;9.57;77.38;96212.69;18238888;32;20054;-64
2022/11/23 15:02:33;;;;;;;1.90;0.63;;;;;;;9.67;72.51;96203.59;18238055;32;20096;-65
2022/11/23 15:12:45;;;;;;;1.57;0.53;;;;;;;9.36;72.93;96219.56;18239801;32;20445;-64
2022/11/23 15:22:48;;;;;;;2.00;0.60;;;;;;;9.02;75.59;96240.38;18239464;32;20147;-65
2022/11/23 15:33:01;;;;;;;1.33;0.50;;;;;;;8.70;77.35;96243.81;18239286;32;20071;-65
2022/11/23 15:43:04;;;;;;;0.87;0.40;;;;;;;8.50;83.46;96259.22;18241457;32;20462;-64
2022/11/23 15:53:08;;;;;;;1.10;0.50;;;;;;;8.27;86.45;96264.31;18249776;32;20066;-64
2022/11/23 16:03:52;;;;;;;3.57;1.00;;;;;;;8.08;95.23;96366.59;18248812;32;20069;-63
2022/11/23 16:36:35;;;;;;;2.37;1.07;;;;;;;7.61;100.00;96462.28;18246740;32;20065;-63
2022/11/23 16:57:51;;;;;;;1.70;1.00;;;;;;;7.36;100.00;96484.75;18049092;32;20087;-64
2022/11/23 17:07:59;;;;;;;3.20;0.73;;;;;;;7.32;100.00;96497.16;18049352;32;20066;-63
2022/11/23 17:18:22;;;;;;;1.00;0.60;;;;;;;7.32;100.00;96524.87;17987367;32;20078;-63
2022/11/23 17:28:27;;;;;;;1.17;0.33;;;;;;;7.35;100.00;96574.59;18087964;32;20055;-63
2022/11/23 17:38:52;;;;;;;0.63;0.37;;;;;;;7.36;100.00;96617.34;17986207;32;20547;-64
2022/11/23 17:49:27;;;;;;;1.00;0.30;;;;;;;7.68;100.00;96674.50;17938393;33;20076;-64
2022/11/23 17:59:34;;;;;;;0.40;0.20;;;;;;;7.88;100.00;96692.44;17985389;32;20080;-64
2022/11/23 18:09:52;;;;;;;0.67;0.30;;;;;;;7.72;100.00;96738.25;18204224;32;20050;-64
2022/11/23 18:20:06;;;;;;;1.27;0.43;;;;;;;7.54;100.00;96774.63;18227218;32;20080;-64
2022/11/23 18:30:10;;;;;;;3.13;0.60;;;;;;;7.52;100.00;96805.56;18241173;32;20085;-64
2022/11/23 18:40:14;;;;;;;0.60;0.20;;;;;;;7.28;100.00;96822.25;18240531;32;20063;-64
2022/11/23 18:50:53;;;;;;;3.50;0.47;;;;;;;7.07;100.00;96838.37;18034082;32;20137;-64
2022/11/23 19:01:16;;;;;;;3.47;0.77;;;;;;;7.09;100.00;96865.78;18056398;32;20083;-64
2022/11/23 19:11:25;;;;;;;3.80;0.60;;;;;;;7.00;100.00;96888.88;18043793;32;20447;-64
2022/11/23 19:21:36;;;;;;;1.73;0.47;;;;;;;6.88;100.00;96904.44;18099417;32;20062;-63
2022/11/23 19:31:39;;;;;;;3.10;0.50;;;;;;;7.08;100.00;96942.13;18251135;32;20066;-63
2022/11/23 19:41:57;;;;;;;1.13;0.37;;;;;;;7.28;100.00;96980.91;18250441;32;20359;-63
2022/11/23 19:52:05;;;;;;;5.80;0.83;;;;;;;7.24;100.00;96969.88;18249916;32;20066;-63
2022/11/23 20:13:08;;;;;;;2.43;0.30;;;;;;;6.36;100.00;97056.50;18203481;32;20062;-63
2022/11/23 20:23:15;;;;;;;2.10;0.53;;;;;;;6.06;100.00;97074.00;18247753;32;20084;-64
2022/11/23 20:33:19;;;;;;;1.07;0.30;;;;;;;5.92;100.00;97081.63;18247466;32;20050;-64
2022/11/23 20:43:22;;;;;;;0.75;0.20;;;;;;;5.86;100.00;97106.78;18246650;32;20098;-63
2022/11/23 20:53:28;;;;;;;0.73;0.30;;;;;;;5.88;100.00;97110.84;18232232;32;20081;-63
2022/11/23 21:03:37;;;;;;;0.77;0.20;;;;;;;5.95;100.00;97126.75;18244873;32;20078;-64
2022/11/23 21:24:01;;;;;;;0.20;0.10;;;;;;;5.99;100.00;97143.16;18243969;32;20434;-64
2022/11/23 21:34:05;;;;;;;0.20;0.10;;;;;;;5.92;100.00;97152.22;18230539;32;20461;-64
2022/11/23 21:44:09;;;;;;;0.40;0.30;;;;;;;5.85;100.00;97156.97;18242344;32;20096;-64
2022/11/23 21:54:14;;;;;;;0.50;0.27;;;;;;;5.80;100.00;97169.50;18242373;32;20100;-64
2022/11/23 22:04:19;;;;;;;0.83;0.40;;;;;;;5.63;100.00;97166.91;18241531;32;20099;-64
2022/11/23 22:14:22;;;;;;;1.63;0.80;;;;;;;5.43;100.00;97168.28;18241462;32;20050;-64
2022/11/23 22:24:25;;;;;;;4.00;1.10;;;;;;;5.33;100.00;97171.66;18240926;32;20058;-64
2022/11/23 22:34:28;;;;;;;1.57;0.80;;;;;;;5.32;100.00;97179.94;18240681;32;20070;-64
2022/11/23 22:44:32;;;;;;;1.83;0.80;;;;;;;5.34;100.00;97185.84;18226363;32;20062;-64
2022/11/23 22:54:36;;;;;;;4.07;1.00;;;;;;;5.23;100.00;97184.91;18246076;32;20063;-64
2022/11/23 23:04:39;;;;;;;1.70;0.60;;;;;;;5.01;100.00;97192.91;18252743;32;20097;-64
2022/11/23 23:14:42;;;;;;;1.73;0.47;;;;;;;5.05;100.00;97216.28;18252369;32;20042;-64
2022/11/23 23:24:45;;;;;;;2.17;0.70;;;;;;;5.19;100.00;97227.44;18251767;32;20066;-64
2022/11/23 23:45:42;;;;;;;2.83;1.23;;;;;;;5.28;100.00;97249.31;18250416;32;20109;-62
2022/11/23 23:56:06;;;;;;;4.23;1.07;;;;;;;5.35;100.00;97263.34;18250188;32;20050;-63
